N80EM EGCC-EGLF
Flight info
| Callsign | N80EM |
|---|---|
| Flight time | 0h 37m |
| Altitude | 19000 |
| Route | SANBA N859 HON DCT NEDEX L151 KIDLI N859 CPT |
| Aircraft | C750/M-SBDE3FGHRWXY/S |
Departure
| Time | 2026-04-26 14:50 |
|---|---|
| Airport | Manchester Airport (EGCC) |
Arrival
| Time | 2026-04-26 15:28 |
|---|---|
| Airport | Farnborough Airport (EGLF) |
| Time | Latitude | Longitude | Altitude | Speed | Heading |
|---|---|---|---|---|---|
| 2026-04-26 14:30 | 53.35576 | -2.28153 | 234 ft | 0 kts | 142° |
| 2026-04-26 14:44 | 53.35567 | -2.28141 | 234 ft | 4 kts | 142° |
| 2026-04-26 14:45 | 53.35516 | -2.28136 | 231 ft | 11 kts | 181° |
| 2026-04-26 14:45 | 53.35462 | -2.28119 | 234 ft | 9 kts | 132° |
| 2026-04-26 14:45 | 53.35456 | -2.28073 | 234 ft | 4 kts | 90° |
| 2026-04-26 14:45 | 53.35455 | -2.28023 | 234 ft | 4 kts | 93° |
| 2026-04-26 14:46 | 53.35457 | -2.27918 | 235 ft | 11 kts | 87° |
| 2026-04-26 14:46 | 53.35459 | -2.27809 | 236 ft | 8 kts | 84° |
| 2026-04-26 14:46 | 53.35498 | -2.27706 | 235 ft | 17 kts | 51° |
| 2026-04-26 14:46 | 53.35590 | -2.27516 | 241 ft | 20 kts | 51° |
| 2026-04-26 14:47 | 53.35668 | -2.27354 | 250 ft | 15 kts | 52° |
| 2026-04-26 14:47 | 53.35741 | -2.27203 | 252 ft | 16 kts | 51° |
| 2026-04-26 14:47 | 53.35810 | -2.27057 | 252 ft | 15 kts | 57° |
| 2026-04-26 14:47 | 53.35861 | -2.26919 | 252 ft | 13 kts | 52° |
| 2026-04-26 14:48 | 53.35915 | -2.26798 | 252 ft | 12 kts | 62° |
| 2026-04-26 14:48 | 53.35916 | -2.26741 | 253 ft | 0 kts | 107° |
| 2026-04-26 14:48 | 53.35907 | -2.26717 | 255 ft | 3 kts | 141° |
| 2026-04-26 14:49 | 53.35857 | -2.26691 | 261 ft | 6 kts | 170° |
| 2026-04-26 14:49 | 53.35807 | -2.26676 | 266 ft | 5 kts | 170° |
| 2026-04-26 14:49 | 53.35760 | -2.26696 | 266 ft | 0 kts | 231° |
| 2026-04-26 14:49 | 53.35745 | -2.26727 | 266 ft | 13 kts | 231° |
| 2026-04-26 14:50 | 53.35699 | -2.26821 | 263 ft | 0 kts | 231° |
| 2026-04-26 14:50 | 53.35597 | -2.27033 | 254 ft | 76 kts | 231° |
| 2026-04-26 14:50 | 53.35079 | -2.28116 | 483 ft | 133 kts | 229° |
| 2026-04-26 14:50 | 53.34451 | -2.29372 | 1218 ft | 140 kts | 228° |
| 2026-04-26 14:51 | 53.33846 | -2.30634 | 1956 ft | 144 kts | 230° |
| 2026-04-26 14:51 | 53.33193 | -2.31994 | 2658 ft | 146 kts | 231° |
| 2026-04-26 14:51 | 53.32579 | -2.33285 | 3527 ft | 149 kts | 234° |
| 2026-04-26 14:51 | 53.32177 | -2.35058 | 3992 ft | 181 kts | 262° |
| 2026-04-26 14:52 | 53.32205 | -2.37304 | 4641 ft | 206 kts | 271° |
| 2026-04-26 14:52 | 53.32219 | -2.39819 | 5367 ft | 223 kts | 263° |
| 2026-04-26 14:52 | 53.31609 | -2.42193 | 6343 ft | 223 kts | 232° |
| 2026-04-26 14:52 | 53.30402 | -2.43818 | 7402 ft | 229 kts | 205° |
| 2026-04-26 14:53 | 53.28853 | -2.44475 | 8522 ft | 231 kts | 193° |
| 2026-04-26 14:53 | 53.27230 | -2.44743 | 9467 ft | 243 kts | 175° |
| 2026-04-26 14:53 | 53.25639 | -2.43722 | 10509 ft | 247 kts | 156° |
| 2026-04-26 14:53 | 53.24105 | -2.42355 | 11385 ft | 253 kts | 154° |
| 2026-04-26 14:54 | 53.22537 | -2.40955 | 12240 ft | 258 kts | 155° |
| 2026-04-26 14:54 | 53.20928 | -2.39547 | 13024 ft | 268 kts | 155° |
| 2026-04-26 14:54 | 53.19195 | -2.38038 | 13360 ft | 295 kts | 155° |
| 2026-04-26 14:54 | 53.17294 | -2.36372 | 13589 ft | 322 kts | 154° |
| 2026-04-26 14:55 | 53.15225 | -2.34557 | 13718 ft | 350 kts | 154° |
| 2026-04-26 14:55 | 53.13002 | -2.32610 | 14025 ft | 367 kts | 154° |
| 2026-04-26 14:55 | 53.10747 | -2.30633 | 14824 ft | 367 kts | 154° |
| 2026-04-26 14:55 | 53.08477 | -2.28653 | 15513 ft | 370 kts | 154° |
| 2026-04-26 14:56 | 53.06185 | -2.26660 | 16222 ft | 373 kts | 154° |
| 2026-04-26 14:56 | 53.03879 | -2.24654 | 16971 ft | 376 kts | 154° |
| 2026-04-26 14:56 | 53.01554 | -2.22632 | 17723 ft | 379 kts | 154° |
| 2026-04-26 14:56 | 52.99238 | -2.20620 | 18504 ft | 382 kts | 154° |
| 2026-04-26 14:57 | 52.96841 | -2.18542 | 19197 ft | 385 kts | 154° |
| 2026-04-26 14:57 | 52.94482 | -2.16500 | 19831 ft | 390 kts | 154° |
| 2026-04-26 14:57 | 52.92061 | -2.14407 | 20505 ft | 395 kts | 154° |
| 2026-04-26 14:57 | 52.89610 | -2.12289 | 21165 ft | 400 kts | 154° |
| 2026-04-26 14:58 | 52.87086 | -2.10114 | 21279 ft | 419 kts | 154° |
| 2026-04-26 14:58 | 52.84437 | -2.07836 | 21285 ft | 439 kts | 154° |
| 2026-04-26 14:58 | 52.81675 | -2.05459 | 21303 ft | 455 kts | 154° |
| 2026-04-26 14:58 | 52.78843 | -2.03021 | 21295 ft | 460 kts | 154° |
| 2026-04-26 14:59 | 52.75991 | -2.00572 | 21292 ft | 464 kts | 154° |
| 2026-04-26 14:59 | 52.73113 | -1.98111 | 21289 ft | 466 kts | 154° |
| 2026-04-26 14:59 | 52.70225 | -1.95642 | 21292 ft | 468 kts | 154° |
| 2026-04-26 14:59 | 52.68316 | -1.94012 | 21294 ft | 467 kts | 154° |
| 2026-04-26 15:00 | 52.64453 | -1.90714 | 21292 ft | 468 kts | 154° |
| 2026-04-26 15:00 | 52.61563 | -1.88256 | 21293 ft | 468 kts | 154° |
| 2026-04-26 15:00 | 52.58671 | -1.85799 | 21287 ft | 468 kts | 154° |
| 2026-04-26 15:00 | 52.55781 | -1.83346 | 21290 ft | 468 kts | 154° |
| 2026-04-26 15:01 | 52.52889 | -1.80894 | 21292 ft | 468 kts | 154° |
| 2026-04-26 15:01 | 52.49999 | -1.78447 | 21285 ft | 467 kts | 154° |
| 2026-04-26 15:01 | 52.47117 | -1.76013 | 21286 ft | 466 kts | 154° |
| 2026-04-26 15:01 | 52.44228 | -1.73575 | 21284 ft | 466 kts | 154° |
| 2026-04-26 15:02 | 52.41344 | -1.71146 | 21284 ft | 466 kts | 154° |
| 2026-04-26 15:02 | 52.38457 | -1.68717 | 21288 ft | 466 kts | 154° |
| 2026-04-26 15:02 | 52.35518 | -1.66510 | 21276 ft | 465 kts | 161° |
| 2026-04-26 15:02 | 52.32415 | -1.65051 | 21287 ft | 463 kts | 167° |
| 2026-04-26 15:03 | 52.29278 | -1.63818 | 21291 ft | 464 kts | 167° |
| 2026-04-26 15:03 | 52.26143 | -1.62547 | 21307 ft | 464 kts | 167° |
| 2026-04-26 15:03 | 52.23020 | -1.61268 | 21314 ft | 463 kts | 167° |
| 2026-04-26 15:03 | 52.19892 | -1.60016 | 21315 ft | 463 kts | 168° |
| 2026-04-26 15:04 | 52.16758 | -1.58776 | 21313 ft | 463 kts | 168° |
| 2026-04-26 15:04 | 52.13635 | -1.57528 | 21318 ft | 463 kts | 167° |
| 2026-04-26 15:04 | 52.11561 | -1.56693 | 21314 ft | 463 kts | 167° |
| 2026-04-26 15:04 | 52.08439 | -1.55441 | 21309 ft | 459 kts | 168° |
| 2026-04-26 15:05 | 52.05329 | -1.54211 | 21307 ft | 462 kts | 168° |
| 2026-04-26 15:05 | 52.03219 | -1.53373 | 21298 ft | 463 kts | 168° |
| 2026-04-26 15:05 | 51.99065 | -1.51715 | 21284 ft | 464 kts | 168° |
| 2026-04-26 15:05 | 51.95925 | -1.50468 | 21286 ft | 464 kts | 168° |
| 2026-04-26 15:06 | 51.92847 | -1.49248 | 21019 ft | 443 kts | 168° |
| 2026-04-26 15:06 | 51.89951 | -1.48075 | 20462 ft | 412 kts | 167° |
| 2026-04-26 15:06 | 51.87342 | -1.46517 | 19943 ft | 392 kts | 157° |
| 2026-04-26 15:06 | 51.85001 | -1.44372 | 19450 ft | 383 kts | 149° |
| 2026-04-26 15:07 | 51.80682 | -1.39836 | 18475 ft | 352 kts | 149° |
| 2026-04-26 15:07 | 51.78678 | -1.37752 | 17999 ft | 334 kts | 150° |
| 2026-04-26 15:07 | 51.76725 | -1.35929 | 17528 ft | 315 kts | 160° |
| 2026-04-26 15:08 | 51.74696 | -1.34880 | 17160 ft | 299 kts | 166° |
| 2026-04-26 15:08 | 51.72743 | -1.33910 | 16785 ft | 288 kts | 165° |
| 2026-04-26 15:08 | 51.70858 | -1.32943 | 16408 ft | 279 kts | 165° |
| 2026-04-26 15:08 | 51.69032 | -1.32007 | 16045 ft | 272 kts | 165° |
| 2026-04-26 15:09 | 51.67250 | -1.31105 | 15668 ft | 265 kts | 165° |
| 2026-04-26 15:09 | 51.65507 | -1.30224 | 15322 ft | 260 kts | 165° |
| 2026-04-26 15:09 | 51.63803 | -1.29360 | 14983 ft | 255 kts | 165° |
| 2026-04-26 15:09 | 51.62127 | -1.28512 | 14647 ft | 250 kts | 165° |
| 2026-04-26 15:10 | 51.60449 | -1.27665 | 14316 ft | 258 kts | 165° |
| 2026-04-26 15:10 | 51.59302 | -1.27087 | 14099 ft | 263 kts | 164° |
| 2026-04-26 15:10 | 51.56944 | -1.25894 | 13601 ft | 266 kts | 164° |
| 2026-04-26 15:10 | 51.55183 | -1.25004 | 13252 ft | 264 kts | 164° |
| 2026-04-26 15:11 | 51.53437 | -1.24123 | 12891 ft | 262 kts | 164° |
| 2026-04-26 15:11 | 51.51707 | -1.23252 | 12550 ft | 259 kts | 164° |
| 2026-04-26 15:11 | 51.49991 | -1.22389 | 12209 ft | 258 kts | 164° |
| 2026-04-26 15:11 | 51.48329 | -1.21338 | 11853 ft | 257 kts | 155° |
| 2026-04-26 15:12 | 51.46733 | -1.20051 | 11531 ft | 257 kts | 155° |
| 2026-04-26 15:12 | 51.45131 | -1.18789 | 11193 ft | 256 kts | 156° |
| 2026-04-26 15:12 | 51.43527 | -1.17540 | 10855 ft | 256 kts | 156° |
| 2026-04-26 15:12 | 51.41936 | -1.16292 | 10526 ft | 254 kts | 156° |
| 2026-04-26 15:13 | 51.40348 | -1.15042 | 10186 ft | 253 kts | 155° |
| 2026-04-26 15:13 | 51.38771 | -1.13805 | 9834 ft | 252 kts | 156° |
| 2026-04-26 15:13 | 51.37203 | -1.12579 | 9495 ft | 250 kts | 156° |
| 2026-04-26 15:13 | 51.35649 | -1.11354 | 9167 ft | 248 kts | 155° |
| 2026-04-26 15:14 | 51.34326 | -1.09615 | 8778 ft | 251 kts | 129° |
| 2026-04-26 15:14 | 51.33351 | -1.07316 | 8512 ft | 249 kts | 125° |
| 2026-04-26 15:14 | 51.32383 | -1.05027 | 8213 ft | 248 kts | 126° |
| 2026-04-26 15:14 | 51.31402 | -1.02759 | 7886 ft | 247 kts | 126° |
| 2026-04-26 15:15 | 51.30432 | -1.00513 | 7507 ft | 244 kts | 126° |
| 2026-04-26 15:15 | 51.29471 | -0.98274 | 7064 ft | 244 kts | 125° |
| 2026-04-26 15:15 | 51.28519 | -0.96055 | 6656 ft | 240 kts | 125° |
| 2026-04-26 15:15 | 51.27575 | -0.93864 | 6208 ft | 239 kts | 125° |
| 2026-04-26 15:16 | 51.26641 | -0.91700 | 5786 ft | 235 kts | 124° |
| 2026-04-26 15:16 | 51.25721 | -0.89570 | 5439 ft | 231 kts | 124° |
| 2026-04-26 15:16 | 51.24806 | -0.87449 | 4977 ft | 232 kts | 124° |
| 2026-04-26 15:16 | 51.23918 | -0.85372 | 4806 ft | 217 kts | 122° |
| 2026-04-26 15:17 | 51.23374 | -0.83224 | 4565 ft | 208 kts | 105° |
| 2026-04-26 15:17 | 51.23143 | -0.81739 | 4423 ft | 207 kts | 104° |
| 2026-04-26 15:17 | 51.22667 | -0.78834 | 4002 ft | 204 kts | 105° |
| 2026-04-26 15:17 | 51.22299 | -0.76680 | 3772 ft | 199 kts | 105° |
| 2026-04-26 15:18 | 51.21933 | -0.74533 | 3454 ft | 202 kts | 105° |
| 2026-04-26 15:18 | 51.21575 | -0.72384 | 3127 ft | 199 kts | 105° |
| 2026-04-26 15:18 | 51.21209 | -0.70235 | 2777 ft | 201 kts | 106° |
| 2026-04-26 15:18 | 51.21020 | -0.68057 | 2355 ft | 204 kts | 85° |
| 2026-04-26 15:19 | 51.21601 | -0.65938 | 1973 ft | 210 kts | 58° |
| 2026-04-26 15:19 | 51.22404 | -0.64099 | 2028 ft | 197 kts | 57° |
| 2026-04-26 15:19 | 51.23175 | -0.62285 | 2010 ft | 199 kts | 59° |
| 2026-04-26 15:19 | 51.23933 | -0.60440 | 2021 ft | 199 kts | 59° |
| 2026-04-26 15:20 | 51.24692 | -0.58589 | 2033 ft | 200 kts | 59° |
| 2026-04-26 15:20 | 51.25476 | -0.56721 | 2027 ft | 204 kts | 57° |
| 2026-04-26 15:20 | 51.26273 | -0.54847 | 2013 ft | 200 kts | 57° |
| 2026-04-26 15:20 | 51.27163 | -0.53139 | 1950 ft | 203 kts | 38° |
| 2026-04-26 15:21 | 51.28458 | -0.52753 | 1880 ft | 189 kts | 347° |
| 2026-04-26 15:21 | 51.29588 | -0.53696 | 1966 ft | 178 kts | 329° |
| 2026-04-26 15:21 | 51.30626 | -0.54678 | 2032 ft | 169 kts | 330° |
| 2026-04-26 15:21 | 51.31633 | -0.55620 | 2011 ft | 164 kts | 330° |
| 2026-04-26 15:22 | 51.32626 | -0.56553 | 1997 ft | 166 kts | 330° |
| 2026-04-26 15:22 | 51.33630 | -0.57491 | 2011 ft | 167 kts | 330° |
| 2026-04-26 15:22 | 51.34551 | -0.58632 | 1946 ft | 173 kts | 306° |
| 2026-04-26 15:22 | 51.34687 | -0.60407 | 1813 ft | 160 kts | 246° |
| 2026-04-26 15:23 | 51.33863 | -0.61481 | 1773 ft | 156 kts | 187° |
| 2026-04-26 15:23 | 51.32908 | -0.60903 | 1793 ft | 152 kts | 130° |
| 2026-04-26 15:23 | 51.32769 | -0.59287 | 1827 ft | 158 kts | 70° |
| 2026-04-26 15:23 | 51.33621 | -0.58206 | 1866 ft | 165 kts | 12° |
| 2026-04-26 15:24 | 51.34680 | -0.58778 | 1909 ft | 171 kts | 314° |
| 2026-04-26 15:24 | 51.34965 | -0.60518 | 1940 ft | 167 kts | 256° |
| 2026-04-26 15:24 | 51.34216 | -0.61791 | 1981 ft | 163 kts | 195° |
| 2026-04-26 15:24 | 51.33115 | -0.61943 | 2054 ft | 160 kts | 198° |
| 2026-04-26 15:25 | 51.32156 | -0.62900 | 2119 ft | 172 kts | 228° |
| 2026-04-26 15:25 | 51.31881 | -0.64056 | 2023 ft | 168 kts | 258° |
| 2026-04-26 15:25 | 51.31335 | -0.66310 | 2043 ft | 153 kts | 239° |
| 2026-04-26 15:25 | 51.30856 | -0.67778 | 1762 ft | 144 kts | 239° |
| 2026-04-26 15:26 | 51.30397 | -0.69146 | 1521 ft | 135 kts | 239° |
| 2026-04-26 15:26 | 51.29967 | -0.70438 | 1293 ft | 131 kts | 239° |
| 2026-04-26 15:26 | 51.29548 | -0.71717 | 1081 ft | 129 kts | 239° |
| 2026-04-26 15:26 | 51.29139 | -0.72970 | 890 ft | 128 kts | 239° |
| 2026-04-26 15:27 | 51.28720 | -0.74219 | 658 ft | 125 kts | 240° |
| 2026-04-26 15:27 | 51.28317 | -0.75437 | 432 ft | 122 kts | 241° |
| 2026-04-26 15:27 | 51.27925 | -0.76609 | 265 ft | 117 kts | 241° |
| 2026-04-26 15:27 | 51.27582 | -0.77641 | 228 ft | 82 kts | 243° |
| 2026-04-26 15:28 | 51.27430 | -0.78057 | 220 ft | 14 kts | 261° |
| 2026-04-26 15:28 | 51.27444 | -0.78074 | 220 ft | 3 kts | 53° |
| 2026-04-26 15:28 | 51.27457 | -0.78044 | 221 ft | 2 kts | 55° |
| 2026-04-26 15:28 | 51.27493 | -0.78025 | 222 ft | 12 kts | 335° |
| 2026-04-26 15:29 | 51.27569 | -0.78122 | 222 ft | 14 kts | 315° |
| 2026-04-26 15:29 | 51.27638 | -0.78209 | 222 ft | 12 kts | 322° |
| 2026-04-26 15:29 | 51.27666 | -0.78121 | 221 ft | 0 kts | 126° |
| 2026-04-26 15:30 | 51.27663 | -0.78116 | 221 ft | 0 kts | 126° |
| 2026-04-26 15:30 | 51.27664 | -0.78116 | 280 ft | 0 kts | 107° |
| 2026-04-26 15:31 | 51.27664 | -0.78115 | 221 ft | 0 kts | 104° |